Time;durP1;ratioP1;P1;durP2;ratioP2;P2;SDS_P1;SDS_P2;PMS_P1;PMS_P2;Temp;Humidity;BMP_temperature;BMP_pressure;BME280_temperature;BME280_humidity;BME280_pressure;Samples;Min_cycle;Max_cycle;Signal;HPM_P1;HPM_P2
2022/05/24 00:01:41;;;;;;;;;;;;;;;27.90;30.88;100419.59;5076999;28;1459;-39
2022/05/24 00:04:06;;;;;;;;;;;;;;;27.88;31.49;100421.66;5076698;28;838;-39
2022/05/24 00:06:31;;;;;;;;;;;;;;;27.92;31.36;100408.59;5077818;28;803;-40
2022/05/24 00:08:57;;;;;;;;;;;;;;;27.95;31.50;100409.03;5077503;28;1954;-39
2022/05/24 00:11:22;;;;;;;;;;;;;;;27.94;31.51;100411.94;5077499;28;852;-39
2022/05/24 00:13:48;;;;;;;;;;;;;;;27.87;31.61;100415.44;5077387;28;850;-39
2022/05/24 00:16:13;;;;;;;;;;;;;;;27.91;31.22;100425.84;5076330;28;1009;-40
2022/05/24 00:18:38;;;;;;;;;;;;;;;27.95;31.62;100430.66;5059081;28;909;-42
2022/05/24 00:21:04;;;;;;;;;;;;;;;27.95;31.49;100429.81;5077197;28;809;-40
2022/05/24 00:23:29;;;;;;;;;;;;;;;27.97;31.35;100430.47;5076978;28;855;-40
2022/05/24 00:25:56;;;;;;;;;;;;;;;27.98;31.11;100424.03;5077312;28;1167;-40
2022/05/24 00:28:22;;;;;;;;;;;;;;;27.95;31.16;100435.22;5059170;28;1905;-40
2022/05/24 00:30:47;;;;;;;;;;;;;;;27.96;31.44;100426.09;5076287;28;877;-39
2022/05/24 00:33:13;;;;;;;;;;;;;;;27.93;31.28;100419.22;5077235;28;838;-39
2022/05/24 00:35:38;;;;;;;;;;;;;;;27.94;31.09;100412.78;5077037;28;845;-39
2022/05/24 00:38:04;;;;;;;;;;;;;;;27.94;31.53;100420.06;5059111;28;813;-39
2022/05/24 00:40:29;;;;;;;;;;;;;;;27.92;30.98;100422.09;5058343;28;788;-39
2022/05/24 00:42:55;;;;;;;;;;;;;;;27.89;31.38;100417.94;5076618;28;865;-39
2022/05/24 00:45:22;;;;;;;;;;;;;;;27.87;31.26;100420.84;5076902;28;817;-39
2022/05/24 00:47:56;;;;;;;;;;;;;;;27.98;31.02;100414.06;5058782;28;1953;-39
2022/05/24 00:50:25;;;;;;;;;;;;;;;27.96;31.23;100418.81;5058731;28;719;-39
2022/05/24 00:52:53;;;;;;;;;;;;;;;28.00;31.32;100413.84;5076937;28;796;-39
2022/05/24 00:55:22;;;;;;;;;;;;;;;28.04;31.31;100408.88;5076446;28;776;-39
2022/05/24 00:58:02;;;;;;;;;;;;;;;28.01;31.10;100415.50;5076315;28;840;-39
2022/05/24 01:00:27;;;;;;;;;;;;;;;28.00;31.51;100421.97;5070286;28;899;-39
2022/05/24 01:02:52;;;;;;;;;;;;;;;28.02;30.97;100414.50;5076686;28;761;-39
2022/05/24 01:05:19;;;;;;;;;;;;;;;28.04;31.25;100414.28;5076479;28;834;-39
2022/05/24 01:07:44;;;;;;;;;;;;;;;28.01;31.45;100420.91;5075407;28;1894;-39
2022/05/24 01:10:14;;;;;;;;;;;;;;;27.96;31.02;100421.50;5076030;28;786;-40
2022/05/24 01:12:41;;;;;;;;;;;;;;;27.98;30.60;100416.75;5058606;28;802;-40
2022/05/24 01:15:07;;;;;;;;;;;;;;;28.06;31.07;100428.47;5076486;28;860;-40
2022/05/24 01:17:32;;;;;;;;;;;;;;;28.02;31.01;100424.47;5076130;28;710;-40
2022/05/24 01:19:57;;;;;;;;;;;;;;;28.05;31.15;100432.19;5075832;28;904;-40
2022/05/24 01:22:26;;;;;;;;;;;;;;;27.99;31.12;100431.94;5076556;28;935;-39
2022/05/24 01:24:53;;;;;;;;;;;;;;;27.97;31.13;100420.50;5076040;28;770;-39
2022/05/24 01:27:19;;;;;;;;;;;;;;;27.99;31.38;100414.91;5075876;28;1902;-39
2022/05/24 01:29:44;;;;;;;;;;;;;;;28.05;31.08;100424.06;5076319;28;992;-39
2022/05/24 01:37:37;;;;;;;;;;;;;;;28.02;30.75;100435.28;5055979;28;620;-39
2022/05/24 01:40:02;;;;;;;;;;;;;;;28.05;31.30;100419.50;5075558;28;746;-39
2022/05/24 01:42:28;;;;;;;;;;;;;;;28.08;31.19;100423.66;5058149;28;881;-40
2022/05/24 01:44:56;;;;;;;;;;;;;;;28.10;31.19;100416.19;5075214;28;810;-39
2022/05/24 01:47:22;;;;;;;;;;;;;;;28.04;31.17;100417.84;5075616;28;1894;-38
2022/05/24 01:49:48;;;;;;;;;;;;;;;28.06;31.17;100421.16;5057908;28;993;-38
2022/05/24 01:52:27;;;;;;;;;;;;;;;28.06;31.04;100431.16;5057488;28;834;-39
2022/05/24 01:54:55;;;;;;;;;;;;;;;28.02;31.25;100430.72;5075548;28;849;-39
2022/05/24 01:57:21;;;;;;;;;;;;;;;28.06;31.22;100423.88;5075876;28;843;-40
2022/05/24 01:59:48;;;;;;;;;;;;;;;28.05;31.43;100415.97;5075465;28;931;-40
2022/05/24 02:02:14;;;;;;;;;;;;;;;28.09;31.04;100412.66;5075824;28;906;-40
2022/05/24 02:04:39;;;;;;;;;;;;;;;28.07;31.43;100422.00;5075535;28;924;-39
2022/05/24 02:07:04;;;;;;;;;;;;;;;28.11;30.91;100424.13;5075588;28;1264;-39
2022/05/24 02:09:31;;;;;;;;;;;;;;;28.18;30.84;100428.72;5075118;28;1905;-38
2022/05/24 02:11:58;;;;;;;;;;;;;;;28.11;31.17;100421.41;5075646;28;722;-38
2022/05/24 02:14:24;;;;;;;;;;;;;;;28.10;31.27;100416.19;5057655;28;805;-39
2022/05/24 02:16:51;;;;;;;;;;;;;;;28.06;31.42;100413.06;5074972;28;830;-39
2022/05/24 02:19:17;;;;;;;;;;;;;;;28.07;31.14;100424.72;5052518;28;1067;-39
2022/05/24 02:21:42;;;;;;;;;;;;;;;28.08;31.10;100420.97;5079190;28;840;-42
2022/05/24 02:24:15;;;;;;;;;;;;;;;28.11;31.15;100424.13;5060941;28;846;-39
2022/05/24 02:26:40;;;;;;;;;;;;;;;28.07;31.38;100422.84;5072516;28;1139;-39
2022/05/24 02:29:09;;;;;;;;;;;;;;;28.09;31.06;100428.06;5079526;28;1977;-39
2022/05/24 02:31:35;;;;;;;;;;;;;;;28.15;30.88;100429.97;5078878;28;1445;-40
2022/05/24 02:34:00;;;;;;;;;;;;;;;28.06;31.19;100431.97;5079494;28;778;-39
2022/05/24 02:36:26;;;;;;;;;;;;;;;28.11;30.94;100434.94;5079188;28;1036;-39
2022/05/24 02:38:51;;;;;;;;;;;;;;;28.04;31.36;100436.78;5078983;28;749;-39
2022/05/24 02:41:28;;;;;;;;;;;;;;;28.04;31.20;100438.63;5078855;28;840;-39
2022/05/24 02:43:54;;;;;;;;;;;;;;;28.06;31.16;100439.28;5079655;28;742;-39
2022/05/24 02:46:19;;;;;;;;;;;;;;;28.06;30.96;100431.97;5078393;28;813;-39
2022/05/24 02:48:44;;;;;;;;;;;;;;;28.04;31.00;100425.97;5078999;28;1965;-39
2022/05/24 02:51:10;;;;;;;;;;;;;;;28.08;31.40;100420.97;5078962;28;842;-39
2022/05/24 02:53:36;;;;;;;;;;;;;;;28.06;31.04;100426.56;5078806;28;926;-39
2022/05/24 02:56:02;;;;;;;;;;;;;;;28.04;31.05;100433.22;5079068;28;792;-39
2022/05/24 02:58:27;;;;;;;;;;;;;;;28.03;31.25;100429.69;5079203;28;793;-39
2022/05/24 03:00:53;;;;;;;;;;;;;;;28.02;31.47;100419.91;5077655;28;889;-39
2022/05/24 03:03:18;;;;;;;;;;;;;;;28.02;31.13;100422.59;5060020;28;977;-39
2022/05/24 03:05:43;;;;;;;;;;;;;;;28.13;30.87;100423.09;5078913;28;917;-39
2022/05/24 03:10:52;;;;;;;;;;;;;;;28.00;31.39;100421.97;5078543;28;662;-39
2022/05/24 03:16:11;;;;;;;;;;;;;;;27.83;30.85;100432.22;5078165;28;678;-43
2022/05/24 03:18:37;;;;;;;;;;;;;;;27.14;31.55;100432.63;5073232;28;832;-42
2022/05/24 03:21:02;;;;;;;;;;;;;;;26.51;32.81;100428.47;5078676;28;809;-42
2022/05/24 03:23:27;;;;;;;;;;;;;;;26.31;33.35;100429.00;5077787;28;889;-42
2022/05/24 03:25:53;;;;;;;;;;;;;;;26.23;33.63;100437.19;5077822;28;1182;-41
2022/05/24 03:28:19;;;;;;;;;;;;;;;26.15;33.66;100433.56;5078780;28;1967;-42
2022/05/24 03:30:45;;;;;;;;;;;;;;;26.26;33.71;100428.72;5076792;28;984;-41
2022/05/24 03:33:11;;;;;;;;;;;;;;;26.29;33.40;100434.59;5078135;28;853;-42
2022/05/24 03:35:36;;;;;;;;;;;;;;;25.84;34.68;100444.47;5078408;28;738;-42
2022/05/24 03:38:01;;;;;;;;;;;;;;;25.38;35.57;100452.34;5077905;28;812;-43
2022/05/24 03:40:26;;;;;;;;;;;;;;;24.98;36.27;100454.25;5078076;28;833;-43
2022/05/24 03:42:54;;;;;;;;;;;;;;;24.45;37.38;100443.03;5059672;28;861;-42
2022/05/24 03:45:19;;;;;;;;;;;;;;;24.55;37.14;100453.56;5077351;28;1516;-43
2022/05/24 03:47:45;;;;;;;;;;;;;;;24.30;37.57;100450.94;5078063;28;2008;-42
2022/05/24 03:50:10;;;;;;;;;;;;;;;24.24;37.89;100450.78;5077870;28;846;-43
2022/05/24 03:52:35;;;;;;;;;;;;;;;24.44;37.68;100454.75;5077454;28;782;-40
2022/05/24 03:55:01;;;;;;;;;;;;;;;24.99;36.36;100454.09;5077897;28;873;-40
2022/05/24 04:00:10;;;;;;;;;;;;;;;25.56;35.49;100448.53;5077299;28;875;-40
2022/05/24 04:02:36;;;;;;;;;;;;;;;25.21;36.03;100443.53;5077536;28;849;-41
2022/05/24 04:05:01;;;;;;;;;;;;;;;24.52;37.69;100448.56;5076847;28;868;-39
2022/05/24 04:07:27;;;;;;;;;;;;;;;25.15;36.47;100452.34;5077233;28;1902;-39
2022/05/24 04:09:52;;;;;;;;;;;;;;;25.36;35.96;100453.56;5077313;28;753;-40
2022/05/24 04:12:17;;;;;;;;;;;;;;;25.18;36.00;100451.97;5059493;28;831;-40
2022/05/24 04:14:42;;;;;;;;;;;;;;;25.31;36.89;100454.94;5077327;28;847;-40
2022/05/24 04:17:08;;;;;;;;;;;;;;;25.58;35.92;100451.88;5076549;28;789;-38
2022/05/24 04:19:33;;;;;;;;;;;;;;;25.97;35.51;100451.94;5077090;28;828;-42
2022/05/24 04:21:58;;;;;;;;;;;;;;;26.13;34.32;100459.03;5077176;28;817;-44
2022/05/24 04:24:24;;;;;;;;;;;;;;;26.31;34.73;100463.25;5076525;28;853;-40
2022/05/24 04:26:49;;;;;;;;;;;;;;;26.57;34.37;100459.28;5077211;28;1040;-42
2022/05/24 04:29:14;;;;;;;;;;;;;;;26.68;33.91;100461.50;5077103;28;1976;-43
2022/05/24 04:31:40;;;;;;;;;;;;;;;26.69;33.62;100463.19;5076341;28;853;-44
2022/05/24 04:34:05;;;;;;;;;;;;;;;26.78;33.33;100464.75;5051678;28;983;-44
2022/05/24 04:36:31;;;;;;;;;;;;;;;26.74;33.68;100460.75;5077424;28;814;-44
2022/05/24 04:38:57;;;;;;;;;;;;;;;26.81;33.30;100465.41;5076375;28;857;-43
2022/05/24 04:44:07;;;;;;;;;;;;;;;26.87;33.73;100460.09;5072339;28;773;-42
2022/05/24 04:49:17;;;;;;;;;;;;;;;27.05;33.43;100456.19;5076499;28;1905;-41
2022/05/24 04:51:42;;;;;;;;;;;;;;;27.28;32.65;100454.38;5076781;28;841;-41
2022/05/24 04:54:07;;;;;;;;;;;;;;;27.26;32.54;100455.38;5076310;28;821;-42
2022/05/24 04:56:33;;;;;;;;;;;;;;;27.29;32.59;100458.72;5076487;28;913;-42
2022/05/24 04:58:58;;;;;;;;;;;;;;;27.29;32.70;100464.13;5076659;28;1051;-42
2022/05/24 05:01:23;;;;;;;;;;;;;;;27.10;32.88;100464.56;5075799;28;737;-45
2022/05/24 05:03:48;;;;;;;;;;;;;;;27.01;32.80;100471.91;5076329;28;966;-44
2022/05/24 05:06:14;;;;;;;;;;;;;;;26.93;33.01;100477.38;5076944;28;928;-46
2022/05/24 05:08:39;;;;;;;;;;;;;;;26.89;33.02;100476.09;5075908;28;1983;-46
2022/05/24 05:11:04;;;;;;;;;;;;;;;26.87;33.07;100484.41;5076251;28;841;-43
2022/05/24 05:13:30;;;;;;;;;;;;;;;27.09;33.24;100483.66;5076203;28;830;-45
2022/05/24 05:15:55;;;;;;;;;;;;;;;27.17;32.71;100494.34;5075590;28;895;-42
2022/05/24 05:18:22;;;;;;;;;;;;;;;27.24;31.39;100494.41;5058480;28;822;-43
2022/05/24 05:20:48;;;;;;;;;;;;;;;27.29;31.80;100497.38;5075713;28;802;-42
2022/05/24 05:23:14;;;;;;;;;;;;;;;27.33;32.58;100493.25;5075940;28;914;-42
2022/05/24 05:25:41;;;;;;;;;;;;;;;27.41;32.40;100491.47;5076178;28;1024;-41
2022/05/24 05:28:06;;;;;;;;;;;;;;;27.29;31.88;100501.94;5075951;28;1980;-44
2022/05/24 05:33:16;;;;;;;;;;;;;;;27.28;31.97;100506.50;5069307;28;742;-45
2022/05/24 05:35:45;;;;;;;;;;;;;;;27.29;32.08;100508.19;5075989;28;866;-42
2022/05/24 05:38:10;;;;;;;;;;;;;;;27.38;31.77;100503.47;5069789;28;784;-46
2022/05/24 05:40:36;;;;;;;;;;;;;;;27.40;31.78;100512.25;5076468;28;1087;-49
2022/05/24 05:43:01;;;;;;;;;;;;;;;27.33;32.28;100505.91;5075911;28;943;-48
2022/05/24 05:45:26;;;;;;;;;;;;;;;27.37;32.64;100508.06;5075568;28;867;-47
2022/05/24 05:47:53;;;;;;;;;;;;;;;27.39;32.29;100505.19;5075595;28;1953;-47
2022/05/24 05:50:19;;;;;;;;;;;;;;;27.33;32.51;100505.91;5075599;28;853;-46
2022/05/24 05:52:45;;;;;;;;;;;;;;;27.35;33.03;100502.00;5058057;28;809;-48
2022/05/24 05:55:10;;;;;;;;;;;;;;;27.34;32.79;100507.59;5075499;28;877;-46
2022/05/24 05:57:36;;;;;;;;;;;;;;;27.43;32.76;100505.59;5075837;28;933;-46
2022/05/24 06:00:01;;;;;;;;;;;;;;;27.61;32.74;100506.00;5074969;28;932;-46
2022/05/24 06:02:26;;;;;;;;;;;;;;;27.64;32.80;100504.81;5057675;28;758;-49
2022/05/24 06:04:52;;;;;;;;;;;;;;;27.67;32.97;100498.16;5075625;28;738;-42
2022/05/24 06:07:17;;;;;;;;;;;;;;;27.71;32.58;100505.72;5075506;28;814;-44
2022/05/24 06:09:42;;;;;;;;;;;;;;;27.70;32.79;100508.63;5075752;28;1905;-45
2022/05/24 06:12:08;;;;;;;;;;;;;;;27.74;32.88;100507.22;5074995;28;933;-44
2022/05/24 06:14:33;;;;;;;;;;;;;;;27.85;32.82;100504.00;5075735;28;869;-47
2022/05/24 06:16:59;;;;;;;;;;;;;;;27.84;32.30;100504.19;5056935;28;921;-45
2022/05/24 06:19:24;;;;;;;;;;;;;;;27.79;33.14;100514.75;5075296;28;1395;-46
2022/05/24 06:21:49;;;;;;;;;;;;;;;27.68;33.20;100513.34;5073362;28;894;-46
2022/05/24 06:24:15;;;;;;;;;;;;;;;27.62;33.50;100514.97;5075230;28;829;-45
2022/05/24 06:26:40;;;;;;;;;;;;;;;27.58;33.67;100509.09;5075530;28;995;-48
2022/05/24 06:29:06;;;;;;;;;;;;;;;27.61;33.39;100514.13;5075322;28;1968;-45
2022/05/24 06:31:31;;;;;;;;;;;;;;;27.62;33.24;100510.41;5068555;28;867;-48
2022/05/24 06:33:56;;;;;;;;;;;;;;;27.69;33.25;100510.50;5075552;28;934;-46
2022/05/24 06:36:21;;;;;;;;;;;;;;;27.63;33.50;100512.06;5074774;28;961;-44
2022/05/24 06:38:47;;;;;;;;;;;;;;;27.67;33.40;100511.69;5074863;28;825;-44
2022/05/24 06:41:12;;;;;;;;;;;;;;;27.62;33.34;100515.81;5075867;28;793;-46
2022/05/24 06:43:37;;;;;;;;;;;;;;;27.64;33.20;100512.91;5075863;28;881;-46
2022/05/24 06:46:09;;;;;;;;;;;;;;;27.66;33.46;100523.53;5073029;28;822;-47
2022/05/24 06:48:38;;;;;;;;;;;;;;;27.71;33.48;100515.72;5075479;28;1906;-48
2022/05/24 06:51:10;;;;;;;;;;;;;;;27.83;33.03;100522.25;5074837;28;801;-47
2022/05/24 06:53:36;;;;;;;;;;;;;;;27.78;32.92;100521.19;5075226;28;807;-46
2022/05/24 06:56:01;;;;;;;;;;;;;;;27.81;32.55;100521.63;5075243;28;802;-45
2022/05/24 06:58:26;;;;;;;;;;;;;;;27.84;32.56;100521.22;5074743;28;830;-46
2022/05/24 07:03:35;;;;;;;;;;;;;;;27.76;32.88;100529.47;5068481;28;726;-46
2022/05/24 07:06:01;;;;;;;;;;;;;;;27.79;32.87;100526.41;5075426;28;843;-44
2022/05/24 07:08:27;;;;;;;;;;;;;;;27.85;32.48;100524.78;5078756;28;1953;-47
2022/05/24 07:10:52;;;;;;;;;;;;;;;27.91;32.53;100534.81;5078717;28;813;-44
2022/05/24 07:13:18;;;;;;;;;;;;;;;27.86;32.83;100535.38;5078282;28;722;-46
2022/05/24 07:15:43;;;;;;;;;;;;;;;27.88;32.93;100535.19;5078345;28;796;-44
2022/05/24 07:18:08;;;;;;;;;;;;;;;27.84;32.84;100537.44;5078689;28;952;-45
2022/05/24 07:20:34;;;;;;;;;;;;;;;27.89;33.23;100536.88;5059787;28;843;-47
2022/05/24 07:23:07;;;;;;;;;;;;;;;27.90;32.69;100530.44;5078413;28;832;-48
2022/05/24 07:25:32;;;;;;;;;;;;;;;27.93;32.88;100530.03;5078212;28;1070;-46
2022/05/24 07:27:57;;;;;;;;;;;;;;;27.95;32.96;100532.56;5077946;28;1902;-47
2022/05/24 07:30:23;;;;;;;;;;;;;;;28.01;32.66;100528.25;5077770;28;866;-47
2022/05/24 07:32:48;;;;;;;;;;;;;;;28.05;32.83;100535.78;5078363;28;868;-45
2022/05/24 07:35:13;;;;;;;;;;;;;;;28.06;32.65;100544.72;5078367;28;972;-47
2022/05/24 07:37:38;;;;;;;;;;;;;;;28.10;32.16;100546.84;5078186;28;877;-46
2022/05/24 07:45:49;;;;;;;;;;;;;;;28.03;33.01;100551.34;5077558;28;844;-45
2022/05/24 07:48:14;;;;;;;;;;;;;;;28.05;32.75;100543.03;5062423;28;1897;-44
2022/05/24 07:50:40;;;;;;;;;;;;;;;28.09;32.82;100544.34;5077420;28;855;-46
2022/05/24 07:53:05;;;;;;;;;;;;;;;28.09;32.74;100545.16;5078284;28;757;-45
2022/05/24 07:55:30;;;;;;;;;;;;;;;28.11;32.73;100543.09;5077456;28;825;-44
2022/05/24 07:57:57;;;;;;;;;;;;;;;28.08;32.76;100554.31;5077589;28;900;-45
2022/05/24 08:00:23;;;;;;;;;;;;;;;28.06;32.79;100552.84;5059505;28;814;-44
2022/05/24 08:02:51;;;;;;;;;;;;;;;28.06;33.16;100550.13;5077505;28;1039;-45
2022/05/24 08:05:17;;;;;;;;;;;;;;;28.10;33.27;100546.00;5077664;28;807;-45
2022/05/24 08:07:44;;;;;;;;;;;;;;;28.13;33.32;100547.50;5077461;28;1959;-45
2022/05/24 08:10:09;;;;;;;;;;;;;;;28.12;33.22;100552.06;5077195;28;805;-45
2022/05/24 08:12:34;;;;;;;;;;;;;;;28.12;33.11;100543.94;5077536;28;877;-44
2022/05/24 08:15:01;;;;;;;;;;;;;;;28.15;33.05;100548.97;5077426;28;883;-43
2022/05/24 08:17:26;;;;;;;;;;;;;;;28.17;33.13;100554.16;5076359;28;889;-45
2022/05/24 08:19:55;;;;;;;;;;;;;;;28.15;32.98;100554.38;5076571;28;849;-46
2022/05/24 08:22:20;;;;;;;;;;;;;;;28.16;33.16;100556.03;5077335;28;841;-45
2022/05/24 08:24:45;;;;;;;;;;;;;;;28.20;32.67;100559.19;5077516;28;749;-42
2022/05/24 08:27:14;;;;;;;;;;;;;;;28.18;33.17;100569.34;5076808;28;1100;-45
2022/05/24 08:29:39;;;;;;;;;;;;;;;28.20;33.14;100562.72;5076971;28;1930;-45
2022/05/24 08:32:04;;;;;;;;;;;;;;;28.23;32.94;100562.34;5076413;28;900;-44
2022/05/24 08:34:31;;;;;;;;;;;;;;;28.21;32.95;100555.47;5076740;28;921;-46
2022/05/24 08:36:56;;;;;;;;;;;;;;;28.33;32.80;100553.91;5076573;28;858;-45
2022/05/24 08:39:22;;;;;;;;;;;;;;;28.20;32.82;100551.06;5077082;28;778;-46
2022/05/24 08:42:06;;;;;;;;;;;;;;;28.28;32.81;100558.22;5076930;28;773;-45
2022/05/24 08:50:07;;;;;;;;;;;;;;;28.18;33.12;100545.84;5076681;28;710;-44
2022/05/24 08:52:36;;;;;;;;;;;;;;;28.20;33.32;100549.22;5076859;28;781;-45
2022/05/24 08:55:02;;;;;;;;;;;;;;;28.21;33.00;100553.56;5058649;28;762;-44
2022/05/24 08:57:39;;;;;;;;;;;;;;;28.20;32.91;100554.63;5057591;28;864;-44
2022/05/24 09:00:10;;;;;;;;;;;;;;;28.21;33.42;100550.88;5076592;28;1129;-43
2022/05/24 09:02:36;;;;;;;;;;;;;;;28.19;32.67;100549.41;5076322;28;783;-47
2022/05/24 09:05:01;;;;;;;;;;;;;;;28.19;33.19;100550.25;5058276;28;908;-45
2022/05/24 09:07:27;;;;;;;;;;;;;;;28.18;32.90;100545.00;5076371;28;765;-45
2022/05/24 09:09:55;;;;;;;;;;;;;;;28.20;33.19;100543.81;5076162;28;1965;-44
2022/05/24 09:12:23;;;;;;;;;;;;;;;28.19;33.33;100539.44;5076287;28;827;-46
2022/05/24 09:18:10;;;;;;;;;;;;;;;28.19;32.88;100546.72;5073026;28;659;-45
2022/05/24 09:20:42;;;;;;;;;;;;;;;28.22;33.22;100538.19;5076292;28;938;-43
2022/05/24 09:23:28;;;;;;;;;;;;;;;28.21;32.94;100547.34;5076204;28;738;-46
2022/05/24 09:25:57;;;;;;;;;;;;;;;28.33;33.18;100542.25;5075863;28;1016;-43
2022/05/24 09:28:41;;;;;;;;;;;;;;;28.35;32.78;100553.72;5075491;28;1965;-43
2022/05/24 09:31:07;;;;;;;;;;;;;;;28.40;32.63;100551.25;5075707;28;1428;-43
2022/05/24 09:33:32;;;;;;;;;;;;;;;28.44;32.85;100557.97;5075500;28;794;-44
2022/05/24 09:35:58;;;;;;;;;;;;;;;28.43;32.80;100556.28;5075763;28;808;-44
2022/05/24 09:38:27;;;;;;;;;;;;;;;28.44;32.57;100547.16;5075828;28;899;-45
2022/05/24 09:40:54;;;;;;;;;;;;;;;28.43;32.47;100550.88;5075637;28;830;-48
2022/05/24 09:43:40;;;;;;;;;;;;;;;28.48;32.85;100552.97;5076078;28;782;-45
2022/05/24 09:46:05;;;;;;;;;;;;;;;28.50;32.60;100564.44;5075149;28;2305;-45
2022/05/24 09:48:31;;;;;;;;;;;;;;;28.50;32.62;100560.91;5075318;28;1943;-44
2022/05/24 09:50:57;;;;;;;;;;;;;;;28.46;33.02;100561.28;5076354;28;836;-44
2022/05/24 09:53:26;;;;;;;;;;;;;;;28.55;32.61;100561.13;5075740;28;808;-45
2022/05/24 09:55:59;;;;;;;;;;;;;;;28.46;33.19;100564.00;5057395;28;896;-44
2022/05/24 09:58:25;;;;;;;;;;;;;;;28.53;32.83;100560.53;5076239;28;782;-46
2022/05/24 10:00:51;;;;;;;;;;;;;;;28.55;32.69;100550.31;5075223;28;914;-44
2022/05/24 10:03:20;;;;;;;;;;;;;;;28.55;32.41;100551.16;5075806;28;834;-44
2022/05/24 10:05:48;;;;;;;;;;;;;;;28.54;33.01;100549.50;5075853;28;817;-51
2022/05/24 10:08:14;;;;;;;;;;;;;;;28.47;33.20;100544.03;5057493;28;1906;-43
2022/05/24 10:10:40;;;;;;;;;;;;;;;28.46;33.00;100547.75;5058335;28;853;-45
2022/05/24 10:13:25;;;;;;;;;;;;;;;28.58;32.75;100544.50;5057687;28;785;-45
2022/05/24 10:15:51;;;;;;;;;;;;;;;28.55;33.02;100548.47;5068521;28;1216;-45
2022/05/24 10:18:39;;;;;;;;;;;;;;;28.54;32.68;100552.22;5075151;28;853;-45
2022/05/24 10:21:05;;;;;;;;;;;;;;;28.52;33.25;100546.16;5075562;28;797;-44
2022/05/24 10:23:30;;;;;;;;;;;;;;;28.68;32.73;100554.97;5075181;28;824;-45
2022/05/24 10:26:09;;;;;;;;;;;;;;;28.63;32.37;100552.88;5074993;28;1032;-46
2022/05/24 10:28:34;;;;;;;;;;;;;;;28.63;32.53;100554.75;5075369;28;1973;-42
2022/05/24 10:31:03;;;;;;;;;;;;;;;28.67;32.27;100554.16;5075098;28;972;-43
2022/05/24 10:39:34;;;;;;;;;;;;;;;28.70;32.31;100561.88;5059521;28;788;-46
2022/05/24 10:42:18;;;;;;;;;;;;;;;28.67;32.50;100564.13;5079253;28;778;-46
2022/05/24 10:44:48;;;;;;;;;;;;;;;28.64;32.87;100551.84;5079058;28;856;-46
2022/05/24 10:47:22;;;;;;;;;;;;;;;28.68;32.32;100557.69;5060931;28;842;-45
2022/05/24 10:49:53;;;;;;;;;;;;;;;28.70;32.02;100551.06;5078725;28;1902;-46
2022/05/24 10:52:31;;;;;;;;;;;;;;;28.80;31.74;100556.09;5060384;28;1086;-45
2022/05/24 10:54:56;;;;;;;;;;;;;;;28.82;31.73;100564.03;5078894;28;861;-44
2022/05/24 10:57:31;;;;;;;;;;;;;;;28.77;31.95;100559.22;5078655;28;816;-45
2022/05/24 11:00:08;;;;;;;;;;;;;;;28.73;32.23;100557.94;5060861;28;926;-45
2022/05/24 11:02:52;;;;;;;;;;;;;;;28.55;32.55;100562.00;5060362;28;1142;-44
2022/05/24 11:05:17;;;;;;;;;;;;;;;28.72;32.18;100569.81;5078156;28;874;-45
2022/05/24 11:07:42;;;;;;;;;;;;;;;28.81;32.05;100575.91;5078949;28;1961;-44
2022/05/24 11:10:27;;;;;;;;;;;;;;;28.84;31.79;100570.91;5078206;28;823;-45
2022/05/24 11:12:54;;;;;;;;;;;;;;;28.85;31.98;100574.44;5060532;28;1530;-45
2022/05/24 11:15:19;;;;;;;;;;;;;;;28.80;32.22;100569.66;5078155;28;794;-45
2022/05/24 11:17:45;;;;;;;;;;;;;;;28.69;32.52;100573.75;5077728;28;817;-44
2022/05/24 11:20:10;;;;;;;;;;;;;;;28.83;32.13;100576.53;5078281;28;832;-46
2022/05/24 11:22:40;;;;;;;;;;;;;;;28.77;32.51;100569.19;5079021;28;766;-45
2022/05/24 11:25:12;;;;;;;;;;;;;;;28.79;32.53;100567.97;5078261;28;825;-47
2022/05/24 11:27:39;;;;;;;;;;;;;;;28.86;32.16;100568.03;5078186;28;1906;-46
2022/05/24 11:30:11;;;;;;;;;;;;;;;28.92;32.26;100571.78;5077626;28;809;-46
2022/05/24 11:32:46;;;;;;;;;;;;;;;28.83;32.48;100573.81;5077969;28;748;-50
2022/05/24 11:35:18;;;;;;;;;;;;;;;28.79;32.45;100573.41;5078429;28;959;-45
2022/05/24 11:37:44;;;;;;;;;;;;;;;28.81;31.93;100562.38;5078304;28;849;-45
2022/05/24 11:40:30;;;;;;;;;;;;;;;28.72;32.65;100557.13;5060033;28;856;-48
2022/05/24 11:42:56;;;;;;;;;;;;;;;28.85;32.44;100545.53;5072193;28;821;-45
2022/05/24 11:45:34;;;;;;;;;;;;;;;28.76;32.47;100541.28;5078350;28;836;-45
2022/05/24 11:48:00;;;;;;;;;;;;;;;28.68;32.74;100538.75;5077739;28;1898;-46
2022/05/24 11:50:35;;;;;;;;;;;;;;;28.64;33.21;100538.31;5077978;28;838;-45
2022/05/24 11:53:04;;;;;;;;;;;;;;;28.71;32.82;100531.06;5077190;28;809;-45
2022/05/24 11:55:40;;;;;;;;;;;;;;;28.75;32.48;100528.78;5077488;28;899;-45
2022/05/24 11:58:23;;;;;;;;;;;;;;;28.73;32.51;100520.88;5078324;28;725;-44
2022/05/24 12:01:07;;;;;;;;;;;;;;;28.53;32.58;100520.75;5077179;28;1170;-47
2022/05/24 12:09:14;;;;;;;;;;;;;;;28.70;32.79;100509.59;5070591;28;1910;-44
2022/05/24 12:11:39;;;;;;;;;;;;;;;28.72;32.53;100502.97;5071008;28;833;-44
2022/05/24 12:14:33;;;;;;;;;;;;;;;28.77;32.76;100493.41;5053273;28;821;-45
2022/05/24 12:17:02;;;;;;;;;;;;;;;28.74;32.92;100500.06;5042143;28;1306;-45
2022/05/24 12:19:42;;;;;;;;;;;;;;;28.79;32.88;100499.47;5077014;28;843;-44
2022/05/24 12:22:08;;;;;;;;;;;;;;;28.79;32.69;100496.75;5076626;28;849;-46
2022/05/24 12:24:34;;;;;;;;;;;;;;;28.83;32.62;100506.13;5077627;28;774;-45
2022/05/24 12:27:17;;;;;;;;;;;;;;;28.79;32.92;100504.88;5076897;28;1182;-48
2022/05/24 12:29:43;;;;;;;;;;;;;;;28.87;32.45;100514.69;5070729;28;1910;-46
2022/05/24 12:32:09;;;;;;;;;;;;;;;28.89;32.40;100508.06;5076859;28;722;-50
2022/05/24 12:34:34;;;;;;;;;;;;;;;28.82;32.60;100512.59;5076877;28;828;-45
2022/05/24 12:37:18;;;;;;;;;;;;;;;28.84;32.60;100521.34;5077278;28;738;-49
2022/05/24 12:40:03;;;;;;;;;;;;;;;28.85;32.67;100515.75;5071392;28;825;-47
2022/05/24 12:42:28;;;;;;;;;;;;;;;28.90;32.72;100514.28;5076306;28;2133;-48
2022/05/24 12:44:54;;;;;;;;;;;;;;;28.93;32.48;100522.84;5077130;28;793;-51
2022/05/24 12:47:19;;;;;;;;;;;;;;;28.95;32.38;100528.91;5076450;28;955;-50
2022/05/24 12:49:48;;;;;;;;;;;;;;;29.00;32.65;100530.19;5058893;28;1957;-54
2022/05/24 12:52:18;;;;;;;;;;;;;;;28.98;32.41;100516.03;5076490;28;1409;-50
2022/05/24 12:54:47;;;;;;;;;;;;;;;28.93;32.95;100528.25;5076220;28;833;-47
2022/05/24 12:57:20;;;;;;;;;;;;;;;28.86;32.72;100530.13;5077017;28;755;-49
2022/05/24 12:59:58;;;;;;;;;;;;;;;28.79;32.65;100526.53;5076013;28;841;-50
2022/05/24 13:02:33;;;;;;;;;;;;;;;28.81;32.90;100524.47;5074890;28;782;-49
2022/05/24 13:05:01;;;;;;;;;;;;;;;28.73;32.66;100531.72;5076543;28;915;-48
2022/05/24 13:07:29;;;;;;;;;;;;;;;28.69;32.77;100530.44;5076550;28;801;-49
2022/05/24 13:09:54;;;;;;;;;;;;;;;28.66;32.52;100540.84;5076082;28;1902;-52
2022/05/24 13:12:19;;;;;;;;;;;;;;;28.59;32.69;100536.19;5075953;28;896;-50
2022/05/24 13:15:03;;;;;;;;;;;;;;;28.64;32.61;100540.19;5058450;28;766;-50
2022/05/24 13:17:29;;;;;;;;;;;;;;;28.54;32.47;100546.78;5052497;28;831;-51
2022/05/24 13:19:58;;;;;;;;;;;;;;;28.52;32.63;100546.16;5076586;28;829;-51
2022/05/24 13:22:24;;;;;;;;;;;;;;;28.46;32.79;100546.94;5076268;28;790;-52
2022/05/24 13:24:51;;;;;;;;;;;;;;;28.57;32.78;100543.69;5058072;28;841;-53
2022/05/24 13:27:16;;;;;;;;;;;;;;;28.58;32.53;100545.34;5069628;28;1233;-51
2022/05/24 13:35:09;;;;;;;;;;;;;;;28.45;33.02;100542.56;5060870;28;691;-49
2022/05/24 13:37:50;;;;;;;;;;;;;;;28.50;33.00;100539.25;5075370;28;808;-51
2022/05/24 13:40:16;;;;;;;;;;;;;;;28.45;33.41;100540.69;5058001;28;850;-50
2022/05/24 13:42:54;;;;;;;;;;;;;;;28.39;33.08;100533.38;5075831;28;789;-50
2022/05/24 13:45:21;;;;;;;;;;;;;;;28.33;33.21;100526.88;5075449;28;923;-49
2022/05/24 13:48:10;;;;;;;;;;;;;;;28.42;33.24;100524.00;5076036;28;1890;-52
2022/05/24 13:50:36;;;;;;;;;;;;;;;28.42;33.38;100505.91;5057999;28;1565;-50
2022/05/24 13:53:03;;;;;;;;;;;;;;;28.38;33.40;100501.91;5057337;28;834;-51
2022/05/24 13:55:32;;;;;;;;;;;;;;;28.36;33.27;100499.41;5076130;28;814;-49